Lee-on-the-Solent, United Kingdom
Current Conditions -  °F | °C
As of 10:20 AM on Wednesday 22 Oct 2014 (Local Time) from EGHI Reporting Station
Clear Clear  
Wind Chill: 50°   Ceiling: Unl
Heat Index: 50°   Visibility: 6mi
Dew Point: 41°   Wind: 7mph
Humidity: 71%   Direction: 270°W
Pressure: 30.33"   Gusts: NA
Location:  50.8°N, 1.2°W
Report Text: EGHI 220920Z 27006KT 220V310 CAVOK 10/05 Q1027
Loading
Personal Weather Stations






























Interactive Weather Map
Tropical Storm Tracking
New forecast layout! Learn more

10-Day Weather Forecast

Advertisements
Track Severe Weather on mobile